sensor_id;sensor_type;location;lat;lon;timestamp;P1;durP1;ratioP1;P2;durP2;ratioP2
55220;SDS011;41089;51.448;6.604;2023-08-21T00:02:46;5.07;;;2.20;;
55220;SDS011;41089;51.448;6.604;2023-08-21T00:08:47;5.13;;;2.50;;
55220;SDS011;41089;51.448;6.604;2023-08-21T00:14:47;4.35;;;1.75;;
55220;SDS011;41089;51.448;6.604;2023-08-21T00:20:47;7.13;;;1.80;;
55220;SDS011;41089;51.448;6.604;2023-08-21T00:26:48;5.77;;;2.13;;
55220;SDS011;41089;51.448;6.604;2023-08-21T00:32:48;4.30;;;1.80;;
55220;SDS011;41089;51.448;6.604;2023-08-21T00:38:50;7.00;;;2.07;;
55220;SDS011;41089;51.448;6.604;2023-08-21T00:44:50;8.18;;;2.13;;
55220;SDS011;41089;51.448;6.604;2023-08-21T00:50:51;5.80;;;2.00;;
55220;SDS011;41089;51.448;6.604;2023-08-21T00:56:51;6.15;;;2.10;;
55220;SDS011;41089;51.448;6.604;2023-08-21T01:02:52;5.15;;;2.00;;
55220;SDS011;41089;51.448;6.604;2023-08-21T01:08:57;4.77;;;2.00;;
55220;SDS011;41089;51.448;6.604;2023-08-21T01:15:07;5.38;;;1.85;;
55220;SDS011;41089;51.448;6.604;2023-08-21T01:21:09;6.07;;;2.20;;
55220;SDS011;41089;51.448;6.604;2023-08-21T01:27:11;9.93;;;2.28;;
55220;SDS011;41089;51.448;6.604;2023-08-21T01:33:12;6.03;;;2.50;;
55220;SDS011;41089;51.448;6.604;2023-08-21T01:39:14;4.20;;;1.95;;
55220;SDS011;41089;51.448;6.604;2023-08-21T01:45:15;6.95;;;2.97;;
55220;SDS011;41089;51.448;6.604;2023-08-21T01:51:15;8.00;;;2.20;;
55220;SDS011;41089;51.448;6.604;2023-08-21T02:03:29;7.60;;;2.10;;
55220;SDS011;41089;51.448;6.604;2023-08-21T02:09:30;7.68;;;2.28;;
55220;SDS011;41089;51.448;6.604;2023-08-21T02:15:31;9.25;;;3.03;;
55220;SDS011;41089;51.448;6.604;2023-08-21T02:21:31;8.23;;;2.60;;
55220;SDS011;41089;51.448;6.604;2023-08-21T02:27:32;3.53;;;1.52;;
55220;SDS011;41089;51.448;6.604;2023-08-21T02:33:32;4.90;;;1.70;;
55220;SDS011;41089;51.448;6.604;2023-08-21T02:39:32;6.30;;;2.05;;
55220;SDS011;41089;51.448;6.604;2023-08-21T02:45:33;3.60;;;1.60;;
55220;SDS011;41089;51.448;6.604;2023-08-21T02:51:33;9.82;;;2.22;;
55220;SDS011;41089;51.448;6.604;2023-08-21T02:57:35;5.97;;;1.67;;
55220;SDS011;41089;51.448;6.604;2023-08-21T03:03:35;4.15;;;1.90;;
55220;SDS011;41089;51.448;6.604;2023-08-21T03:09:38;4.85;;;2.10;;
55220;SDS011;41089;51.448;6.604;2023-08-21T03:15:39;6.57;;;2.35;;
55220;SDS011;41089;51.448;6.604;2023-08-21T03:21:40;7.03;;;2.33;;
55220;SDS011;41089;51.448;6.604;2023-08-21T03:27:42;6.77;;;2.30;;
55220;SDS011;41089;51.448;6.604;2023-08-21T03:33:44;5.85;;;2.03;;
55220;SDS011;41089;51.448;6.604;2023-08-21T03:39:46;8.60;;;2.15;;
55220;SDS011;41089;51.448;6.604;2023-08-21T03:45:46;6.63;;;2.00;;
55220;SDS011;41089;51.448;6.604;2023-08-21T03:51:47;6.10;;;2.15;;
55220;SDS011;41089;51.448;6.604;2023-08-21T03:57:48;7.00;;;2.38;;
55220;SDS011;41089;51.448;6.604;2023-08-21T04:03:50;5.80;;;2.30;;
55220;SDS011;41089;51.448;6.604;2023-08-21T04:09:50;6.38;;;2.45;;
55220;SDS011;41089;51.448;6.604;2023-08-21T04:15:52;3.00;;;1.98;;
55220;SDS011;41089;51.448;6.604;2023-08-21T04:21:53;3.38;;;2.08;;
55220;SDS011;41089;51.448;6.604;2023-08-21T04:27:54;4.93;;;2.20;;
55220;SDS011;41089;51.448;6.604;2023-08-21T04:33:54;5.33;;;2.00;;
55220;SDS011;41089;51.448;6.604;2023-08-21T04:39:55;3.72;;;2.08;;
55220;SDS011;41089;51.448;6.604;2023-08-21T04:46:02;8.50;;;2.60;;
55220;SDS011;41089;51.448;6.604;2023-08-21T04:52:03;6.35;;;1.77;;
55220;SDS011;41089;51.448;6.604;2023-08-21T04:58:03;7.93;;;2.55;;
55220;SDS011;41089;51.448;6.604;2023-08-21T05:04:04;5.75;;;2.60;;
55220;SDS011;41089;51.448;6.604;2023-08-21T05:10:04;7.72;;;2.80;;
55220;SDS011;41089;51.448;6.604;2023-08-21T05:16:05;6.38;;;2.13;;
55220;SDS011;41089;51.448;6.604;2023-08-21T05:22:06;8.63;;;2.40;;
55220;SDS011;41089;51.448;6.604;2023-08-21T05:28:07;6.07;;;2.35;;
55220;SDS011;41089;51.448;6.604;2023-08-21T05:34:07;6.33;;;2.63;;
55220;SDS011;41089;51.448;6.604;2023-08-21T05:40:08;6.70;;;2.38;;
55220;SDS011;41089;51.448;6.604;2023-08-21T05:46:08;8.77;;;2.75;;
55220;SDS011;41089;51.448;6.604;2023-08-21T05:52:09;7.03;;;2.30;;
55220;SDS011;41089;51.448;6.604;2023-08-21T05:58:10;5.72;;;2.35;;
55220;SDS011;41089;51.448;6.604;2023-08-21T06:04:11;5.00;;;2.85;;
55220;SDS011;41089;51.448;6.604;2023-08-21T06:10:11;6.97;;;1.93;;
55220;SDS011;41089;51.448;6.604;2023-08-21T06:16:12;6.60;;;2.25;;
55220;SDS011;41089;51.448;6.604;2023-08-21T06:22:12;5.78;;;3.05;;
55220;SDS011;41089;51.448;6.604;2023-08-21T06:28:15;9.68;;;2.90;;
55220;SDS011;41089;51.448;6.604;2023-08-21T06:34:16;12.75;;;3.58;;
55220;SDS011;41089;51.448;6.604;2023-08-21T06:40:17;11.98;;;3.08;;
55220;SDS011;41089;51.448;6.604;2023-08-21T06:46:17;10.40;;;3.30;;
55220;SDS011;41089;51.448;6.604;2023-08-21T06:52:17;7.07;;;2.40;;
55220;SDS011;41089;51.448;6.604;2023-08-21T06:58:18;7.97;;;2.30;;
55220;SDS011;41089;51.448;6.604;2023-08-21T07:04:18;10.13;;;2.00;;
55220;SDS011;41089;51.448;6.604;2023-08-21T07:10:19;6.78;;;2.25;;
55220;SDS011;41089;51.448;6.604;2023-08-21T07:16:20;7.15;;;2.50;;
55220;SDS011;41089;51.448;6.604;2023-08-21T07:22:22;7.18;;;2.25;;
55220;SDS011;41089;51.448;6.604;2023-08-21T07:28:22;4.82;;;2.33;;
55220;SDS011;41089;51.448;6.604;2023-08-21T07:34:23;4.47;;;1.63;;
55220;SDS011;41089;51.448;6.604;2023-08-21T07:40:23;5.83;;;1.97;;
55220;SDS011;41089;51.448;6.604;2023-08-21T07:46:25;7.45;;;2.28;;
55220;SDS011;41089;51.448;6.604;2023-08-21T07:52:26;7.68;;;1.88;;
55220;SDS011;41089;51.448;6.604;2023-08-21T07:58:27;6.35;;;2.45;;
55220;SDS011;41089;51.448;6.604;2023-08-21T08:04:29;8.27;;;2.38;;
55220;SDS011;41089;51.448;6.604;2023-08-21T08:10:30;7.43;;;2.08;;
55220;SDS011;41089;51.448;6.604;2023-08-21T08:16:39;6.78;;;1.63;;
55220;SDS011;41089;51.448;6.604;2023-08-21T08:23:01;6.28;;;2.60;;
55220;SDS011;41089;51.448;6.604;2023-08-21T08:29:08;6.32;;;1.60;;
55220;SDS011;41089;51.448;6.604;2023-08-21T08:35:09;6.50;;;1.85;;
55220;SDS011;41089;51.448;6.604;2023-08-21T08:41:12;4.03;;;1.85;;
55220;SDS011;41089;51.448;6.604;2023-08-21T08:47:35;4.93;;;1.98;;
55220;SDS011;41089;51.448;6.604;2023-08-21T08:53:40;6.30;;;1.70;;
55220;SDS011;41089;51.448;6.604;2023-08-21T08:59:42;3.67;;;1.52;;
55220;SDS011;41089;51.448;6.604;2023-08-21T09:05:43;6.73;;;1.43;;
55220;SDS011;41089;51.448;6.604;2023-08-21T09:11:43;7.23;;;2.03;;
55220;SDS011;41089;51.448;6.604;2023-08-21T09:17:52;5.07;;;1.50;;
55220;SDS011;41089;51.448;6.604;2023-08-21T09:23:57;5.82;;;1.75;;
55220;SDS011;41089;51.448;6.604;2023-08-21T09:30:06;6.50;;;1.80;;
55220;SDS011;41089;51.448;6.604;2023-08-21T09:36:09;5.68;;;1.65;;
55220;SDS011;41089;51.448;6.604;2023-08-21T09:42:11;6.85;;;1.88;;
55220;SDS011;41089;51.448;6.604;2023-08-21T09:48:12;6.83;;;1.97;;
55220;SDS011;41089;51.448;6.604;2023-08-21T09:54:13;4.10;;;1.65;;
55220;SDS011;41089;51.448;6.604;2023-08-21T10:00:14;4.65;;;1.92;;
55220;SDS011;41089;51.448;6.604;2023-08-21T10:06:21;5.40;;;1.90;;
55220;SDS011;41089;51.448;6.604;2023-08-21T10:12:23;8.68;;;2.30;;
55220;SDS011;41089;51.448;6.604;2023-08-21T10:18:24;4.32;;;1.73;;
55220;SDS011;41089;51.448;6.604;2023-08-21T10:24:35;3.78;;;1.83;;
55220;SDS011;41089;51.448;6.604;2023-08-21T10:30:38;5.10;;;1.40;;
55220;SDS011;41089;51.448;6.604;2023-08-21T10:42:42;5.30;;;1.65;;
55220;SDS011;41089;51.448;6.604;2023-08-21T10:48:43;6.83;;;2.63;;
55220;SDS011;41089;51.448;6.604;2023-08-21T10:54:47;3.92;;;1.48;;
55220;SDS011;41089;51.448;6.604;2023-08-21T11:00:58;5.10;;;1.70;;
55220;SDS011;41089;51.448;6.604;2023-08-21T11:06:59;4.13;;;1.50;;
55220;SDS011;41089;51.448;6.604;2023-08-21T11:12:59;5.63;;;2.20;;
55220;SDS011;41089;51.448;6.604;2023-08-21T11:19:03;4.35;;;1.63;;
55220;SDS011;41089;51.448;6.604;2023-08-21T11:25:05;4.57;;;1.73;;
55220;SDS011;41089;51.448;6.604;2023-08-21T11:31:06;5.65;;;2.25;;
55220;SDS011;41089;51.448;6.604;2023-08-21T11:37:06;5.07;;;1.80;;
55220;SDS011;41089;51.448;6.604;2023-08-21T11:43:07;6.70;;;2.37;;
55220;SDS011;41089;51.448;6.604;2023-08-21T11:49:09;4.85;;;1.50;;
55220;SDS011;41089;51.448;6.604;2023-08-21T11:55:09;7.27;;;1.70;;
55220;SDS011;41089;51.448;6.604;2023-08-21T12:01:19;5.78;;;1.83;;
55220;SDS011;41089;51.448;6.604;2023-08-21T12:07:20;8.43;;;2.10;;
55220;SDS011;41089;51.448;6.604;2023-08-21T12:13:20;5.70;;;2.22;;
55220;SDS011;41089;51.448;6.604;2023-08-21T12:19:24;5.88;;;2.05;;
55220;SDS011;41089;51.448;6.604;2023-08-21T12:25:24;4.43;;;1.83;;
55220;SDS011;41089;51.448;6.604;2023-08-21T12:31:24;3.40;;;1.70;;
55220;SDS011;41089;51.448;6.604;2023-08-21T12:37:25;7.70;;;2.95;;
55220;SDS011;41089;51.448;6.604;2023-08-21T12:43:25;7.20;;;2.40;;
55220;SDS011;41089;51.448;6.604;2023-08-21T12:49:26;4.95;;;2.10;;
55220;SDS011;41089;51.448;6.604;2023-08-21T12:55:27;4.13;;;1.92;;
55220;SDS011;41089;51.448;6.604;2023-08-21T13:01:28;7.15;;;2.55;;
55220;SDS011;41089;51.448;6.604;2023-08-21T13:07:31;5.10;;;2.20;;
55220;SDS011;41089;51.448;6.604;2023-08-21T13:13:32;7.05;;;2.13;;
55220;SDS011;41089;51.448;6.604;2023-08-21T13:19:33;3.53;;;2.05;;
55220;SDS011;41089;51.448;6.604;2023-08-21T13:25:34;8.05;;;2.42;;
55220;SDS011;41089;51.448;6.604;2023-08-21T13:31:34;6.90;;;2.17;;
55220;SDS011;41089;51.448;6.604;2023-08-21T13:37:38;5.35;;;2.08;;
55220;SDS011;41089;51.448;6.604;2023-08-21T13:43:39;7.10;;;2.40;;
55220;SDS011;41089;51.448;6.604;2023-08-21T13:49:39;4.75;;;2.03;;
55220;SDS011;41089;51.448;6.604;2023-08-21T13:55:40;4.97;;;2.70;;
55220;SDS011;41089;51.448;6.604;2023-08-21T14:01:40;7.50;;;2.57;;
55220;SDS011;41089;51.448;6.604;2023-08-21T14:07:41;5.33;;;2.40;;
55220;SDS011;41089;51.448;6.604;2023-08-21T14:13:41;5.90;;;2.70;;
55220;SDS011;41089;51.448;6.604;2023-08-21T14:19:42;7.18;;;2.35;;
55220;SDS011;41089;51.448;6.604;2023-08-21T14:25:42;7.20;;;2.40;;
55220;SDS011;41089;51.448;6.604;2023-08-21T14:31:43;4.70;;;2.93;;
55220;SDS011;41089;51.448;6.604;2023-08-21T14:37:43;6.30;;;2.90;;
55220;SDS011;41089;51.448;6.604;2023-08-21T14:43:43;8.63;;;2.50;;
55220;SDS011;41089;51.448;6.604;2023-08-21T14:49:44;6.97;;;2.55;;
55220;SDS011;41089;51.448;6.604;2023-08-21T14:55:44;4.17;;;2.30;;
55220;SDS011;41089;51.448;6.604;2023-08-21T15:01:45;5.73;;;2.50;;
55220;SDS011;41089;51.448;6.604;2023-08-21T15:07:46;5.05;;;2.40;;
55220;SDS011;41089;51.448;6.604;2023-08-21T15:13:47;5.78;;;2.25;;
55220;SDS011;41089;51.448;6.604;2023-08-21T15:19:47;7.85;;;2.83;;
55220;SDS011;41089;51.448;6.604;2023-08-21T15:25:50;4.05;;;2.40;;
55220;SDS011;41089;51.448;6.604;2023-08-21T15:31:51;6.68;;;2.22;;
55220;SDS011;41089;51.448;6.604;2023-08-21T15:37:53;4.30;;;2.42;;
55220;SDS011;41089;51.448;6.604;2023-08-21T15:43:53;7.47;;;2.35;;
55220;SDS011;41089;51.448;6.604;2023-08-21T15:49:54;4.68;;;2.40;;
55220;SDS011;41089;51.448;6.604;2023-08-21T15:55:54;6.80;;;2.35;;
55220;SDS011;41089;51.448;6.604;2023-08-21T16:01:54;3.70;;;2.00;;
55220;SDS011;41089;51.448;6.604;2023-08-21T16:07:55;3.87;;;1.87;;
55220;SDS011;41089;51.448;6.604;2023-08-21T16:13:55;3.67;;;1.80;;
55220;SDS011;41089;51.448;6.604;2023-08-21T16:19:57;4.20;;;2.22;;
55220;SDS011;41089;51.448;6.604;2023-08-21T16:26:01;3.60;;;2.25;;
55220;SDS011;41089;51.448;6.604;2023-08-21T16:32:01;3.70;;;2.37;;
55220;SDS011;41089;51.448;6.604;2023-08-21T16:38:02;5.22;;;2.33;;
55220;SDS011;41089;51.448;6.604;2023-08-21T16:44:02;4.38;;;2.38;;
55220;SDS011;41089;51.448;6.604;2023-08-21T16:50:03;4.87;;;2.00;;
55220;SDS011;41089;51.448;6.604;2023-08-21T16:56:03;9.15;;;2.60;;
55220;SDS011;41089;51.448;6.604;2023-08-21T17:02:04;6.97;;;2.10;;
55220;SDS011;41089;51.448;6.604;2023-08-21T17:08:04;3.67;;;2.17;;
55220;SDS011;41089;51.448;6.604;2023-08-21T17:14:06;4.30;;;2.53;;
55220;SDS011;41089;51.448;6.604;2023-08-21T17:20:07;5.93;;;2.50;;
55220;SDS011;41089;51.448;6.604;2023-08-21T17:26:09;5.80;;;2.10;;
55220;SDS011;41089;51.448;6.604;2023-08-21T17:32:12;4.97;;;2.33;;
55220;SDS011;41089;51.448;6.604;2023-08-21T17:38:15;6.80;;;2.47;;
55220;SDS011;41089;51.448;6.604;2023-08-21T17:44:15;6.68;;;2.53;;
55220;SDS011;41089;51.448;6.604;2023-08-21T17:50:16;4.37;;;2.07;;
55220;SDS011;41089;51.448;6.604;2023-08-21T17:56:16;6.30;;;2.13;;
55220;SDS011;41089;51.448;6.604;2023-08-21T18:02:17;4.20;;;2.13;;
55220;SDS011;41089;51.448;6.604;2023-08-21T18:08:17;4.97;;;2.20;;
55220;SDS011;41089;51.448;6.604;2023-08-21T18:14:18;4.43;;;2.00;;
55220;SDS011;41089;51.448;6.604;2023-08-21T18:20:21;5.15;;;2.03;;
55220;SDS011;41089;51.448;6.604;2023-08-21T18:26:21;7.03;;;2.03;;
55220;SDS011;41089;51.448;6.604;2023-08-21T18:32:22;4.77;;;2.40;;
55220;SDS011;41089;51.448;6.604;2023-08-21T18:38:23;5.57;;;2.20;;
55220;SDS011;41089;51.448;6.604;2023-08-21T18:44:23;12.45;;;3.42;;
55220;SDS011;41089;51.448;6.604;2023-08-21T18:50:36;6.07;;;2.40;;
55220;SDS011;41089;51.448;6.604;2023-08-21T18:56:37;6.57;;;2.30;;
55220;SDS011;41089;51.448;6.604;2023-08-21T19:02:38;5.38;;;2.50;;
55220;SDS011;41089;51.448;6.604;2023-08-21T19:08:39;6.05;;;2.30;;
55220;SDS011;41089;51.448;6.604;2023-08-21T19:14:40;8.27;;;2.30;;
55220;SDS011;41089;51.448;6.604;2023-08-21T19:20:40;4.78;;;2.55;;
55220;SDS011;41089;51.448;6.604;2023-08-21T19:26:41;6.13;;;3.00;;
55220;SDS011;41089;51.448;6.604;2023-08-21T19:32:41;4.73;;;2.70;;
55220;SDS011;41089;51.448;6.604;2023-08-21T19:38:47;7.45;;;3.10;;
55220;SDS011;41089;51.448;6.604;2023-08-21T19:44:48;7.68;;;3.15;;
55220;SDS011;41089;51.448;6.604;2023-08-21T19:50:59;5.53;;;3.10;;
55220;SDS011;41089;51.448;6.604;2023-08-21T19:56:59;7.20;;;3.17;;
55220;SDS011;41089;51.448;6.604;2023-08-21T20:03:00;5.88;;;3.50;;
55220;SDS011;41089;51.448;6.604;2023-08-21T20:09:00;5.37;;;3.60;;
55220;SDS011;41089;51.448;6.604;2023-08-21T20:15:02;6.85;;;3.85;;
55220;SDS011;41089;51.448;6.604;2023-08-21T20:21:04;6.00;;;3.85;;
55220;SDS011;41089;51.448;6.604;2023-08-21T20:27:04;7.13;;;3.85;;
55220;SDS011;41089;51.448;6.604;2023-08-21T20:33:05;8.50;;;4.00;;
55220;SDS011;41089;51.448;6.604;2023-08-21T20:39:05;10.13;;;4.68;;
55220;SDS011;41089;51.448;6.604;2023-08-21T20:45:06;8.85;;;4.43;;
55220;SDS011;41089;51.448;6.604;2023-08-21T20:51:09;8.38;;;3.80;;
55220;SDS011;41089;51.448;6.604;2023-08-21T20:57:09;11.60;;;4.13;;
55220;SDS011;41089;51.448;6.604;2023-08-21T21:03:09;7.77;;;4.77;;
55220;SDS011;41089;51.448;6.604;2023-08-21T21:09:10;8.77;;;4.70;;
55220;SDS011;41089;51.448;6.604;2023-08-21T21:15:11;9.60;;;4.97;;
55220;SDS011;41089;51.448;6.604;2023-08-21T21:21:12;9.40;;;4.53;;
55220;SDS011;41089;51.448;6.604;2023-08-21T21:27:12;9.57;;;5.20;;
55220;SDS011;41089;51.448;6.604;2023-08-21T21:33:12;12.43;;;5.30;;
55220;SDS011;41089;51.448;6.604;2023-08-21T21:39:13;8.83;;;5.43;;
55220;SDS011;41089;51.448;6.604;2023-08-21T21:45:13;11.23;;;5.45;;
55220;SDS011;41089;51.448;6.604;2023-08-21T21:51:14;9.73;;;5.78;;
55220;SDS011;41089;51.448;6.604;2023-08-21T21:57:14;12.33;;;4.50;;
55220;SDS011;41089;51.448;6.604;2023-08-21T22:03:14;10.90;;;5.20;;
55220;SDS011;41089;51.448;6.604;2023-08-21T22:09:16;9.07;;;5.15;;
55220;SDS011;41089;51.448;6.604;2023-08-21T22:15:16;7.68;;;4.68;;
55220;SDS011;41089;51.448;6.604;2023-08-21T22:21:17;7.43;;;4.60;;
55220;SDS011;41089;51.448;6.604;2023-08-21T22:27:17;10.02;;;6.00;;
55220;SDS011;41089;51.448;6.604;2023-08-21T22:33:18;11.03;;;5.60;;
55220;SDS011;41089;51.448;6.604;2023-08-21T22:39:19;12.68;;;5.72;;
55220;SDS011;41089;51.448;6.604;2023-08-21T22:45:19;10.40;;;5.27;;
55220;SDS011;41089;51.448;6.604;2023-08-21T22:51:20;13.17;;;5.63;;
55220;SDS011;41089;51.448;6.604;2023-08-21T22:57:20;10.02;;;5.32;;
55220;SDS011;41089;51.448;6.604;2023-08-21T23:03:21;8.90;;;5.43;;
55220;SDS011;41089;51.448;6.604;2023-08-21T23:09:21;11.17;;;5.47;;
55220;SDS011;41089;51.448;6.604;2023-08-21T23:15:21;9.10;;;5.93;;
55220;SDS011;41089;51.448;6.604;2023-08-21T23:21:22;6.93;;;5.37;;
55220;SDS011;41089;51.448;6.604;2023-08-21T23:27:23;13.13;;;6.28;;
55220;SDS011;41089;51.448;6.604;2023-08-21T23:33:24;10.90;;;6.10;;
55220;SDS011;41089;51.448;6.604;2023-08-21T23:39:25;11.50;;;6.13;;
55220;SDS011;41089;51.448;6.604;2023-08-21T23:45:27;9.23;;;6.28;;
55220;SDS011;41089;51.448;6.604;2023-08-21T23:51:27;9.00;;;6.70;;
55220;SDS011;41089;51.448;6.604;2023-08-21T23:57:29;11.63;;;7.50;;
